Time;durP1;ratioP1;P1;durP2;ratioP2;P2;SDS_P1;SDS_P2;PMS_P1;PMS_P2;Temp;Humidity;BMP_temperature;BMP_pressure;BME280_temperature;BME280_humidity;BME280_pressure;Samples;Min_cycle;Max_cycle;Signal;HPM_P1;HPM_P2
2023/07/20 00:01:44;;;;;;;2.38;2.05;;;16.30;99.90;;;;;;5028569;28;20485;-62
2023/07/20 00:04:10;;;;;;;2.97;2.30;;;16.30;99.90;;;;;;5050172;28;20079;-62
2023/07/20 00:06:37;;;;;;;2.92;2.63;;;16.30;99.90;;;;;;5025511;28;20029;-62
2023/07/20 00:09:03;;;;;;;3.38;2.50;;;16.30;99.90;;;;;;5049520;28;20112;-62
2023/07/20 00:11:28;;;;;;;3.75;2.65;;;16.30;99.90;;;;;;5028912;28;20100;-62
2023/07/20 00:13:54;;;;;;;2.80;2.30;;;16.30;99.90;;;;;;5049514;28;20021;-62
2023/07/20 00:16:20;;;;;;;3.83;2.20;;;16.30;99.90;;;;;;5038402;28;20083;-62
2023/07/20 00:18:45;;;;;;;3.22;2.00;;;16.30;99.90;;;;;;5030538;28;20026;-62
2023/07/20 00:21:11;;;;;;;3.65;2.72;;;16.30;99.90;;;;;;5047339;28;20037;-63
2023/07/20 00:23:37;;;;;;;3.97;2.40;;;16.30;99.90;;;;;;5030308;28;20134;-62
2023/07/20 00:26:03;;;;;;;2.60;2.40;;;16.30;99.90;;;;;;5047451;28;20036;-62
2023/07/20 00:28:28;;;;;;;6.30;2.55;;;16.30;99.90;;;;;;5048526;28;20435;-62
2023/07/20 00:30:54;;;;;;;3.25;2.17;;;16.30;99.90;;;;;;5034615;28;20130;-63
2023/07/20 00:33:19;;;;;;;3.50;2.47;;;16.30;99.90;;;;;;5049405;28;20025;-61
2023/07/20 00:35:45;;;;;;;4.68;2.30;;;16.30;99.90;;;;;;5033337;28;20149;-62
2023/07/20 00:38:11;;;;;;;3.92;2.67;;;16.30;99.90;;;;;;5049773;28;20025;-62
2023/07/20 00:40:37;;;;;;;4.38;2.20;;;16.20;99.90;;;;;;5031677;28;20074;-62
2023/07/20 00:43:03;;;;;;;6.00;2.60;;;16.20;99.90;;;;;;5049583;28;20056;-62
2023/07/20 00:45:29;;;;;;;6.63;2.58;;;16.10;99.90;;;;;;5029795;28;20075;-62
2023/07/20 00:47:55;;;;;;;3.67;2.53;;;16.10;99.90;;;;;;5049395;28;20088;-62
2023/07/20 00:50:21;;;;;;;2.60;2.40;;;16.10;99.90;;;;;;5029572;28;20025;-62
2023/07/20 00:52:46;;;;;;;3.92;2.83;;;16.00;99.90;;;;;;5049320;28;20370;-62
2023/07/20 00:55:12;;;;;;;4.65;2.58;;;15.90;99.90;;;;;;5028527;28;20072;-62
2023/07/20 00:57:38;;;;;;;3.83;2.55;;;15.90;99.90;;;;;;5048833;28;20036;-62
2023/07/20 01:00:04;;;;;;;5.13;2.38;;;15.90;99.90;;;;;;5029868;28;20042;-63
2023/07/20 01:02:29;;;;;;;4.60;2.55;;;15.90;99.90;;;;;;5046810;28;20094;-62
2023/07/20 01:04:55;;;;;;;4.18;2.75;;;15.80;99.90;;;;;;5027883;28;20025;-64
2023/07/20 01:07:32;;;;;;;4.50;2.70;;;15.80;99.90;;;;;;5029193;28;20393;-62
2023/07/20 01:10:17;;;;;;;4.72;2.83;;;15.80;99.90;;;;;;5009185;28;20045;-62
2023/07/20 01:12:46;;;;;;;3.45;2.30;;;15.80;99.90;;;;;;5009205;28;20029;-62
2023/07/20 01:15:12;;;;;;;4.72;2.45;;;15.80;99.90;;;;;;5046528;28;20017;-61
2023/07/20 01:17:38;;;;;;;4.05;2.35;;;15.70;99.90;;;;;;5048601;28;20017;-62
2023/07/20 01:20:04;;;;;;;4.60;2.50;;;15.70;99.90;;;;;;5029174;28;20034;-63
2023/07/20 01:22:55;;;;;;;4.40;2.70;;;15.70;99.90;;;;;;5046705;28;20025;-62
2023/07/20 01:25:49;;;;;;;3.30;2.35;;;15.70;99.90;;;;;;5010678;28;20113;-62
2023/07/20 01:28:23;;;;;;;7.22;3.38;;;15.70;99.90;;;;;;5048545;28;20248;-63
2023/07/20 01:31:08;;;;;;;3.05;2.45;;;15.70;99.90;;;;;;5032913;28;20037;-63
2023/07/20 01:33:34;;;;;;;5.07;2.75;;;15.70;99.90;;;;;;5029078;28;20027;-62
2023/07/20 01:36:00;;;;;;;5.43;2.90;;;15.70;99.90;;;;;;5046003;28;20029;-63
2023/07/20 01:38:26;;;;;;;6.97;2.67;;;15.80;99.90;;;;;;5048558;28;20025;-62
2023/07/20 01:40:52;;;;;;;5.88;2.90;;;15.80;99.90;;;;;;5033015;28;20075;-62
2023/07/20 01:43:18;;;;;;;2.95;2.50;;;15.80;99.90;;;;;;5048203;28;20048;-63
2023/07/20 01:45:44;;;;;;;6.50;3.42;;;15.80;99.90;;;;;;5032013;28;20029;-63
2023/07/20 01:48:10;;;;;;;7.22;3.25;;;15.80;99.90;;;;;;5048539;28;20025;-63
2023/07/20 01:50:35;;;;;;;5.20;2.90;;;15.70;99.90;;;;;;5030609;28;20041;-63
2023/07/20 01:53:01;;;;;;;5.20;3.15;;;15.70;99.90;;;;;;5048508;28;20373;-63
2023/07/20 01:55:27;;;;;;;4.20;3.03;;;15.80;99.90;;;;;;5029215;28;20561;-63
2023/07/20 01:57:53;;;;;;;4.18;2.80;;;15.70;99.90;;;;;;5048330;28;20025;-62
2023/07/20 02:00:21;;;;;;;5.95;3.35;;;15.70;99.90;;;;;;5027910;28;20052;-64
2023/07/20 02:02:47;;;;;;;5.00;3.47;;;15.70;99.90;;;;;;5048239;28;20024;-63
2023/07/20 02:05:12;;;;;;;8.73;3.55;;;15.60;99.90;;;;;;5027349;28;20025;-61
2023/07/20 02:07:38;;;;;;;5.32;3.30;;;15.60;99.90;;;;;;5028429;28;20108;-63
2023/07/20 02:10:04;;;;;;;6.70;3.35;;;15.60;99.90;;;;;;5047360;28;20112;-62
2023/07/20 02:12:29;;;;;;;6.30;3.55;;;15.50;99.90;;;;;;5046402;28;20040;-63
2023/07/20 02:14:55;;;;;;;3.80;3.13;;;15.50;99.90;;;;;;5028492;28;20654;-63
2023/07/20 02:17:20;;;;;;;4.50;3.25;;;15.50;99.90;;;;;;5027480;28;20034;-63
2023/07/20 02:19:46;;;;;;;5.72;3.03;;;15.50;99.90;;;;;;5047273;28;20443;-63
2023/07/20 02:22:12;;;;;;;5.32;3.05;;;15.50;99.90;;;;;;5026677;28;20022;-62
2023/07/20 02:24:38;;;;;;;6.32;3.17;;;15.50;99.90;;;;;;5050357;28;20036;-62
2023/07/20 02:27:03;;;;;;;7.43;3.15;;;15.50;99.90;;;;;;5030960;28;20052;-63
2023/07/20 02:29:29;;;;;;;6.00;3.47;;;15.50;99.90;;;;;;5049081;28;20078;-62
2023/07/20 02:31:54;;;;;;;5.97;3.45;;;15.50;99.90;;;;;;5028886;28;20061;-63
2023/07/20 02:34:20;;;;;;;4.10;3.33;;;15.60;99.90;;;;;;5050977;28;20033;-63
2023/07/20 02:36:46;;;;;;;4.68;3.13;;;15.50;99.90;;;;;;5030774;28;20037;-62
2023/07/20 02:39:11;;;;;;;3.17;2.88;;;15.50;99.90;;;;;;5051058;28;20088;-62
2023/07/20 02:41:37;;;;;;;4.32;3.40;;;15.50;99.90;;;;;;5030625;28;20025;-62
2023/07/20 02:44:03;;;;;;;6.38;3.55;;;15.40;99.90;;;;;;5051124;28;20523;-62
2023/07/20 02:46:30;;;;;;;4.55;3.20;;;15.30;99.90;;;;;;5030885;28;20026;-62
2023/07/20 02:48:55;;;;;;;3.80;3.30;;;15.20;99.90;;;;;;5050835;28;20037;-62
2023/07/20 02:51:21;;;;;;;4.78;3.25;;;15.20;99.90;;;;;;5040192;28;20025;-63
2023/07/20 02:53:46;;;;;;;6.18;2.97;;;15.10;99.90;;;;;;5032249;28;20122;-63
2023/07/20 02:56:12;;;;;;;5.93;4.18;;;15.10;99.90;;;;;;5049000;28;20389;-61
2023/07/20 02:58:43;;;;;;;5.20;3.88;;;15.10;99.90;;;;;;5031804;28;20025;-62
2023/07/20 03:01:09;;;;;;;5.00;4.07;;;15.10;99.90;;;;;;5026566;28;20045;-63
2023/07/20 03:03:38;;;;;;;5.22;4.32;;;15.10;99.90;;;;;;5031654;28;20026;-62
2023/07/20 03:06:04;;;;;;;7.20;4.50;;;15.10;99.90;;;;;;5046220;28;20501;-62
2023/07/20 03:08:30;;;;;;;6.18;4.90;;;15.20;99.90;;;;;;5031777;28;20025;-62
2023/07/20 03:10:55;;;;;;;9.13;5.90;;;15.20;99.90;;;;;;5048544;28;20051;-62
2023/07/20 03:13:21;;;;;;;5.93;4.53;;;15.20;99.90;;;;;;5051083;28;20388;-62
2023/07/20 03:15:47;;;;;;;9.07;5.88;;;15.30;99.90;;;;;;5035195;28;20032;-62
2023/07/20 03:18:12;;;;;;;6.10;4.97;;;15.40;99.90;;;;;;5051123;28;20036;-62
2023/07/20 03:20:39;;;;;;;8.23;5.40;;;15.40;99.90;;;;;;5033294;28;20116;-62
2023/07/20 03:23:04;;;;;;;9.40;5.47;;;15.40;99.90;;;;;;5051249;28;20036;-62
2023/07/20 03:25:30;;;;;;;8.70;5.28;;;15.50;99.90;;;;;;5032621;28;20082;-62
2023/07/20 03:27:55;;;;;;;8.52;5.22;;;15.50;99.90;;;;;;5050871;28;20754;-66
2023/07/20 03:30:21;;;;;;;6.50;5.85;;;15.60;99.90;;;;;;5035143;28;20041;-60
2023/07/20 03:32:46;;;;;;;7.93;5.63;;;15.70;99.90;;;;;;5031025;28;20520;-62
2023/07/20 03:35:12;;;;;;;9.23;6.40;;;15.70;99.90;;;;;;5047847;28;20060;-61
2023/07/20 03:37:38;;;;;;;6.93;6.15;;;15.70;99.90;;;;;;5050491;28;20443;-62
2023/07/20 03:40:04;;;;;;;8.32;5.70;;;15.70;99.90;;;;;;5031337;28;20120;-62
2023/07/20 03:42:30;;;;;;;8.65;6.57;;;15.80;99.90;;;;;;5048654;28;20032;-62
2023/07/20 03:44:56;;;;;;;6.88;6.18;;;15.80;99.90;;;;;;5031102;28;20060;-62
2023/07/20 03:47:22;;;;;;;8.05;5.90;;;15.90;99.90;;;;;;5029688;28;20030;-62
2023/07/20 03:49:47;;;;;;;6.78;5.50;;;15.90;99.90;;;;;;5049852;28;20036;-63
2023/07/20 03:52:12;;;;;;;7.63;5.47;;;15.90;99.90;;;;;;5029362;28;20044;-61
2023/07/20 03:54:38;;;;;;;6.65;5.60;;;16.00;99.90;;;;;;5049333;28;20033;-62
2023/07/20 03:57:04;;;;;;;8.48;5.57;;;16.00;99.90;;;;;;5029368;28;20036;-62
2023/07/20 03:59:29;;;;;;;7.63;5.32;;;16.00;99.90;;;;;;5049547;28;20036;-62
2023/07/20 04:01:55;;;;;;;6.45;5.07;;;16.00;99.90;;;;;;5029042;28;20225;-62
2023/07/20 04:04:20;;;;;;;9.90;6.20;;;16.00;99.90;;;;;;5049327;28;20023;-62
2023/07/20 04:06:46;;;;;;;8.52;7.07;;;16.10;99.90;;;;;;5025496;28;20041;-62
2023/07/20 04:09:12;;;;;;;10.00;6.88;;;16.10;99.90;;;;;;5049442;28;20501;-61
2023/07/20 04:11:38;;;;;;;10.13;6.75;;;16.10;99.90;;;;;;5028667;28;20048;-63
2023/07/20 04:14:04;;;;;;;8.63;6.30;;;16.10;99.90;;;;;;5048125;28;20439;-63
2023/07/20 04:16:29;;;;;;;9.95;7.03;;;16.10;99.90;;;;;;5029068;28;20041;-62
2023/07/20 04:18:56;;;;;;;8.90;7.18;;;16.10;99.90;;;;;;5049118;28;20025;-62
2023/07/20 04:21:21;;;;;;;10.05;7.78;;;16.10;99.90;;;;;;5038348;28;20400;-63
2023/07/20 04:23:47;;;;;;;6.85;5.72;;;16.10;99.90;;;;;;5029203;28;20025;-62
2023/07/20 04:26:14;;;;;;;8.15;6.03;;;16.10;99.90;;;;;;5047259;28;20032;-61
2023/07/20 04:28:42;;;;;;;11.68;6.85;;;16.20;99.90;;;;;;5030421;28;20112;-63
2023/07/20 04:31:15;;;;;;;9.75;7.47;;;16.20;99.90;;;;;;5047471;28;20056;-63
2023/07/20 04:33:41;;;;;;;9.85;7.35;;;16.20;99.90;;;;;;5029645;28;20025;-63
2023/07/20 04:36:07;;;;;;;9.98;7.97;;;16.20;99.90;;;;;;5047242;28;20036;-63
2023/07/20 04:38:33;;;;;;;11.93;8.40;;;16.20;99.90;;;;;;5030328;28;20108;-63
2023/07/20 04:40:59;;;;;;;11.35;7.40;;;16.20;99.90;;;;;;5046645;28;20120;-62
2023/07/20 04:43:24;;;;;;;9.85;7.45;;;16.20;99.90;;;;;;5049607;28;20032;-62
2023/07/20 04:45:50;;;;;;;10.48;7.35;;;16.30;99.90;;;;;;5033214;28;20029;-62
2023/07/20 04:48:17;;;;;;;10.13;7.93;;;16.30;99.90;;;;;;5049298;28;20029;-62
2023/07/20 04:50:45;;;;;;;12.93;7.65;;;16.30;99.90;;;;;;5032550;28;20048;-62
2023/07/20 04:53:11;;;;;;;7.30;6.18;;;16.30;99.90;;;;;;5049754;28;20033;-63
2023/07/20 04:55:38;;;;;;;9.52;6.90;;;16.40;99.90;;;;;;5031425;28;20376;-62
2023/07/20 04:58:04;;;;;;;9.70;6.70;;;16.40;99.90;;;;;;5049479;28;20013;-63
2023/07/20 05:00:31;;;;;;;8.55;6.47;;;16.50;99.90;;;;;;5029465;28;20031;-62
2023/07/20 05:02:57;;;;;;;10.68;7.88;;;16.50;99.90;;;;;;5048903;28;20599;-63
2023/07/20 05:05:23;;;;;;;11.20;6.68;;;16.70;99.90;;;;;;5027205;28;20021;-62
2023/07/20 05:07:48;;;;;;;8.32;6.30;;;16.70;99.90;;;;;;5029187;28;20025;-62
2023/07/20 05:10:14;;;;;;;8.82;6.88;;;16.90;99.90;;;;;;5046141;28;20036;-62
2023/07/20 05:12:39;;;;;;;8.90;6.60;;;16.90;99.90;;;;;;5048804;28;20412;-62
2023/07/20 05:15:05;;;;;;;7.43;5.65;;;17.00;99.90;;;;;;5029435;28;20080;-63
2023/07/20 05:17:31;;;;;;;7.38;5.93;;;17.10;99.90;;;;;;5046727;28;20408;-62
2023/07/20 05:19:56;;;;;;;6.53;5.85;;;17.20;99.90;;;;;;5029053;28;20103;-63
2023/07/20 05:22:21;;;;;;;9.40;5.93;;;17.30;99.90;;;;;;5028097;28;20381;-63
2023/07/20 05:24:47;;;;;;;7.72;6.20;;;17.40;99.90;;;;;;5047896;28;20059;-63
2023/07/20 05:27:12;;;;;;;7.45;5.80;;;17.40;99.90;;;;;;5027527;28;20053;-62
2023/07/20 05:29:43;;;;;;;6.85;5.82;;;17.50;99.90;;;;;;5044123;28;20069;-62
2023/07/20 05:32:09;;;;;;;7.45;5.97;;;17.50;99.90;;;;;;5027016;28;20044;-63
2023/07/20 05:34:35;;;;;;;7.90;6.05;;;17.50;99.90;;;;;;5047623;28;20071;-63
2023/07/20 05:37:00;;;;;;;11.88;7.15;;;17.50;99.90;;;;;;5027368;28;20034;-63
2023/07/20 05:39:26;;;;;;;7.78;5.95;;;17.50;99.90;;;;;;5048028;28;20099;-63
2023/07/20 05:41:51;;;;;;;8.80;6.50;;;17.50;99.90;;;;;;5027192;28;20026;-63
2023/07/20 05:44:17;;;;;;;9.57;6.72;;;17.60;99.90;;;;;;5047309;28;20565;-62
2023/07/20 05:46:42;;;;;;;8.10;6.70;;;17.70;99.90;;;;;;5027092;28;20026;-63
2023/07/20 05:49:08;;;;;;;7.68;5.97;;;17.80;99.90;;;;;;5047519;28;20036;-63
2023/07/20 05:51:34;;;;;;;6.95;5.90;;;17.80;99.90;;;;;;5026987;28;20086;-63
2023/07/20 05:53:59;;;;;;;7.05;6.07;;;17.90;99.90;;;;;;5047252;28;20033;-63
2023/07/20 05:56:24;;;;;;;6.65;5.70;;;18.10;99.90;;;;;;5037595;28;20051;-63
2023/07/20 05:58:50;;;;;;;10.52;7.03;;;18.30;99.90;;;;;;5028768;28;20101;-63
2023/07/20 06:01:15;;;;;;;10.45;6.40;;;18.50;99.90;;;;;;5045293;28;20417;-63
2023/07/20 06:03:41;;;;;;;6.88;6.13;;;18.70;99.90;;;;;;5026863;28;20116;-61
2023/07/20 06:06:09;;;;;;;6.60;5.40;;;18.90;99.90;;;;;;5043856;28;20040;-61
2023/07/20 06:08:34;;;;;;;5.43;4.65;;;19.90;99.90;;;;;;5026699;28;20495;-61
2023/07/20 06:11:00;;;;;;;4.95;4.50;;;20.60;98.50;;;;;;5047367;28;20044;-61
2023/07/20 06:13:25;;;;;;;5.25;4.30;;;21.00;96.80;;;;;;5027153;28;20069;-61
2023/07/20 06:15:51;;;;;;;5.72;4.70;;;22.70;92.30;;;;;;5047687;28;20438;-62
2023/07/20 06:18:16;;;;;;;6.25;4.10;;;24.50;86.10;;;;;;5026782;28;20025;-61
2023/07/20 06:20:42;;;;;;;3.83;3.53;;;26.20;77.90;;;;;;5047469;28;20451;-61
2023/07/20 06:23:07;;;;;;;3.85;3.45;;;27.80;71.50;;;;;;5027128;28;20420;-62
2023/07/20 06:25:33;;;;;;;4.25;3.58;;;28.10;69.70;;;;;;5047390;28;20418;-62
2023/07/20 06:27:58;;;;;;;3.80;3.15;;;27.30;68.20;;;;;;5026758;28;20045;-62
2023/07/20 06:30:24;;;;;;;3.33;3.03;;;26.40;69.70;;;;;;5040150;28;20041;-61
2023/07/20 06:32:49;;;;;;;4.15;2.58;;;25.50;69.10;;;;;;5028690;28;20105;-61
2023/07/20 06:35:16;;;;;;;2.95;2.65;;;24.90;70.80;;;;;;5032491;28;20036;-61
2023/07/20 06:37:41;;;;;;;3.10;2.80;;;25.10;69.10;;;;;;5047431;28;20025;-61
2023/07/20 06:40:09;;;;;;;2.90;2.42;;;25.80;67.30;;;;;;5026836;28;20053;-62
2023/07/20 06:42:35;;;;;;;3.47;2.60;;;26.20;66.00;;;;;;5047375;28;20032;-61
2023/07/20 06:45:00;;;;;;;2.92;2.45;;;25.90;65.00;;;;;;5026622;28;20037;-62
2023/07/20 06:47:26;;;;;;;2.78;2.08;;;25.30;64.00;;;;;;5047411;28;20033;-61
2023/07/20 06:49:51;;;;;;;2.20;2.00;;;24.70;65.20;;;;;;5025572;28;20104;-62
2023/07/20 06:52:17;;;;;;;2.70;1.98;;;24.30;65.20;;;;;;5047063;28;20044;-61
2023/07/20 06:54:42;;;;;;;2.78;1.65;;;23.90;63.90;;;;;;5026601;28;20029;-61
2023/07/20 06:57:08;;;;;;;2.03;1.70;;;23.50;65.90;;;;;;5047254;28;20040;-62
2023/07/20 06:59:33;;;;;;;2.83;1.88;;;23.30;66.10;;;;;;5025241;28;20045;-61
2023/07/20 07:01:59;;;;;;;3.53;1.90;;;23.00;65.80;;;;;;5027783;28;20113;-62
2023/07/20 07:04:25;;;;;;;1.88;1.77;;;22.80;66.50;;;;;;5038751;28;20021;-60
2023/07/20 07:06:50;;;;;;;2.63;2.15;;;22.80;66.00;;;;;;5024620;28;20028;-61
2023/07/20 07:09:16;;;;;;;2.53;2.33;;;22.70;66.50;;;;;;5040964;28;20021;-62
2023/07/20 07:11:41;;;;;;;2.22;2.03;;;22.50;66.30;;;;;;5031700;28;20096;-61
2023/07/20 07:14:07;;;;;;;1.95;1.63;;;22.30;66.10;;;;;;5045165;28;20489;-63
2023/07/20 07:16:32;;;;;;;2.20;2.00;;;22.20;67.00;;;;;;5031624;28;20040;-62
2023/07/20 07:18:58;;;;;;;3.35;2.00;;;22.00;67.60;;;;;;5046150;28;20033;-62
2023/07/20 07:21:23;;;;;;;1.95;1.75;;;21.80;67.40;;;;;;5031408;28;20109;-62
2023/07/20 07:23:49;;;;;;;2.85;1.70;;;21.80;67.00;;;;;;5047442;28;20025;-62
2023/07/20 07:26:15;;;;;;;2.22;1.58;;;21.90;66.10;;;;;;5031376;28;20486;-61
2023/07/20 07:28:40;;;;;;;2.00;1.40;;;22.10;65.40;;;;;;5048288;28;20032;-61
2023/07/20 07:31:06;;;;;;;1.63;1.25;;;22.30;64.70;;;;;;5031254;28;20049;-63
2023/07/20 07:33:32;;;;;;;1.27;1.20;;;22.60;64.00;;;;;;5050394;28;20119;-62
2023/07/20 07:35:58;;;;;;;1.08;1.02;;;23.00;63.00;;;;;;5029712;28;20192;-62
2023/07/20 07:38:23;;;;;;;1.27;1.17;;;23.30;61.60;;;;;;5050418;28;20116;-63
2023/07/20 07:40:49;;;;;;;1.42;1.27;;;23.30;60.50;;;;;;5029745;28;20037;-62
2023/07/20 07:43:14;;;;;;;2.47;1.08;;;23.20;60.50;;;;;;5050222;28;20037;-61
2023/07/20 07:45:40;;;;;;;1.10;1.00;;;23.60;60.40;;;;;;5029573;28;20047;-62
2023/07/20 07:48:06;;;;;;;1.33;1.20;;;24.90;58.00;;;;;;5050153;28;20028;-62
2023/07/20 07:50:33;;;;;;;0.90;0.90;;;25.90;55.10;;;;;;5029635;28;20551;-62
2023/07/20 07:52:59;;;;;;;0.75;0.70;;;26.60;52.40;;;;;;5049925;28;20079;-62
2023/07/20 07:55:26;;;;;;;0.60;0.55;;;27.70;49.50;;;;;;5029422;28;20037;-62
2023/07/20 07:57:52;;;;;;;1.92;0.80;;;28.80;47.20;;;;;;5050175;28;20017;-63
2023/07/20 08:00:18;;;;;;;0.90;0.90;;;30.00;43.40;;;;;;5029168;28;20037;-62
2023/07/20 08:02:46;;;;;;;1.17;0.65;;;31.10;39.40;;;;;;5050110;28;20036;-63
2023/07/20 08:05:12;;;;;;;0.90;0.68;;;32.10;31.30;;;;;;5032427;28;20086;-62
2023/07/20 08:07:37;;;;;;;0.98;0.85;;;32.60;30.40;;;;;;5050271;28;20024;-61
2023/07/20 08:10:03;;;;;;;1.08;0.70;;;32.20;28.20;;;;;;5029402;28;20509;-62
2023/07/20 08:12:29;;;;;;;0.70;0.70;;;31.40;28.00;;;;;;5049692;28;20021;-62
2023/07/20 08:14:54;;;;;;;1.00;0.40;;;30.80;28.00;;;;;;5029193;28;20552;-61
2023/07/20 08:17:20;;;;;;;1.33;0.80;;;30.10;28.30;;;;;;5049378;28;20021;-61
2023/07/20 08:19:46;;;;;;;2.33;0.75;;;29.60;27.80;;;;;;5028832;28;20401;-61
2023/07/20 08:22:12;;;;;;;1.38;0.75;;;29.50;27.40;;;;;;5048562;28;20037;-62
2023/07/20 08:24:41;;;;;;;1.55;0.60;;;29.70;27.10;;;;;;5028521;28;20105;-62
2023/07/20 08:27:08;;;;;;;3.30;0.70;;;29.80;23.40;;;;;;5049524;28;20535;-62
2023/07/20 08:29:34;;;;;;;2.33;0.80;;;29.70;25.80;;;;;;5028509;28;20034;-61
2023/07/20 08:31:59;;;;;;;0.50;0.50;;;29.80;25.00;;;;;;5029957;28;20049;-61
2023/07/20 08:34:25;;;;;;;2.20;0.57;;;29.80;24.60;;;;;;5041304;28;20021;-61
2023/07/20 08:36:50;;;;;;;0.85;0.60;;;29.50;23.60;;;;;;5030187;28;20038;-62
2023/07/20 08:39:16;;;;;;;2.25;0.68;;;29.30;23.60;;;;;;5042146;28;20417;-61
2023/07/20 08:41:43;;;;;;;3.25;0.70;;;29.10;23.40;;;;;;5029917;28;20037;-62
2023/07/20 08:44:09;;;;;;;1.27;0.70;;;29.20;23.00;;;;;;5043377;28;20101;-62
2023/07/20 08:46:36;;;;;;;1.55;0.60;;;29.40;23.40;;;;;;5029958;28;20112;-62
2023/07/20 08:49:02;;;;;;;1.88;0.52;;;30.10;23.50;;;;;;5044275;28;20029;-61
2023/07/20 08:51:30;;;;;;;3.38;0.80;;;30.70;23.20;;;;;;5029728;28;20010;-62
2023/07/20 08:53:55;;;;;;;1.13;0.60;;;31.00;22.10;;;;;;5044926;28;20021;-61
2023/07/20 08:56:23;;;;;;;1.25;0.55;;;30.90;21.90;;;;;;5029704;28;20025;-61
2023/07/20 08:58:50;;;;;;;1.15;0.65;;;30.60;21.30;;;;;;5045985;28;20444;-61
2023/07/20 09:01:17;;;;;;;0.50;0.50;;;30.10;20.60;;;;;;5029387;28;20080;-61
2023/07/20 09:03:44;;;;;;;1.65;0.68;;;29.80;21.00;;;;;;5046487;28;20119;-61
2023/07/20 09:06:10;;;;;;;0.60;0.55;;;29.20;20.10;;;;;;5022634;28;20100;-62
2023/07/20 09:08:38;;;;;;;0.63;0.60;;;28.50;20.40;;;;;;5048524;28;20116;-62
2023/07/20 09:11:04;;;;;;;1.13;0.65;;;27.90;20.70;;;;;;5027801;28;20025;-62
2023/07/20 09:13:29;;;;;;;2.08;0.77;;;27.20;21.10;;;;;;5048424;28;20507;-62
2023/07/20 09:15:55;;;;;;;1.42;0.75;;;26.70;21.60;;;;;;5027998;28;20029;-62
2023/07/20 09:18:31;;;;;;;0.70;0.60;;;26.40;22.20;;;;;;5048289;28;20459;-62
2023/07/20 09:21:04;;;;;;;0.63;0.63;;;26.50;22.40;;;;;;5027392;28;20038;-62
2023/07/20 09:23:39;;;;;;;0.88;0.50;;;26.70;23.10;;;;;;5048448;28;20033;-62
2023/07/20 09:26:12;;;;;;;0.88;0.47;;;27.10;22.30;;;;;;5009602;28;20632;-62
2023/07/20 09:28:52;;;;;;;0.40;0.40;;;27.40;23.10;;;;;;5047819;28;20063;-62
2023/07/20 09:31:20;;;;;;;0.85;0.52;;;27.50;20.30;;;;;;5009090;28;20620;-62
2023/07/20 09:33:47;;;;;;;1.02;0.60;;;27.20;21.90;;;;;;5045239;28;20120;-57
2023/07/20 09:36:13;;;;;;;0.73;0.50;;;27.00;21.50;;;;;;5029123;28;20026;-61
2023/07/20 09:38:41;;;;;;;0.30;0.30;;;26.90;20.90;;;;;;5047900;28;20033;-61
2023/07/20 09:41:06;;;;;;;0.47;0.40;;;26.80;20.90;;;;;;5009172;28;20513;-61
2023/07/20 09:43:34;;;;;;;0.30;0.30;;;26.80;21.30;;;;;;5047339;28;20037;-61
2023/07/20 09:46:00;;;;;;;0.57;0.52;;;26.90;21.30;;;;;;5025820;28;20072;-62
2023/07/20 09:48:26;;;;;;;0.57;0.40;;;26.90;21.20;;;;;;5047906;28;20025;-61
2023/07/20 09:50:52;;;;;;;0.73;0.30;;;27.10;21.50;;;;;;5027509;28;20029;-62
2023/07/20 09:53:19;;;;;;;0.85;0.30;;;27.40;21.50;;;;;;5047861;28;20571;-61
2023/07/20 09:55:46;;;;;;;0.45;0.20;;;27.60;20.90;;;;;;5027244;28;20026;-61
2023/07/20 09:58:12;;;;;;;0.80;0.32;;;27.70;20.20;;;;;;5048067;28;20574;-61
2023/07/20 10:00:39;;;;;;;0.43;0.30;;;27.60;20.10;;;;;;5026900;28;20493;-61
2023/07/20 10:03:05;;;;;;;0.40;0.40;;;27.50;19.70;;;;;;5047943;28;20029;-62
2023/07/20 10:05:39;;;;;;;0.85;0.30;;;27.50;19.70;;;;;;5029331;28;20025;-62
2023/07/20 10:08:05;;;;;;;0.75;0.40;;;27.40;19.60;;;;;;5008950;28;20038;-62
2023/07/20 10:10:32;;;;;;;0.40;0.30;;;27.50;19.50;;;;;;5030191;28;20029;-62
2023/07/20 10:13:02;;;;;;;0.20;0.20;;;27.50;19.20;;;;;;5047764;28;20029;-62
2023/07/20 10:15:34;;;;;;;0.73;0.50;;;27.60;19.10;;;;;;5026661;28;20038;-61
2023/07/20 10:18:06;;;;;;;0.40;0.40;;;27.50;18.90;;;;;;5023531;28;20390;-61
2023/07/20 10:20:33;;;;;;;1.05;0.50;;;27.10;18.80;;;;;;5022032;28;20037;-61
2023/07/20 10:22:59;;;;;;;0.32;0.32;;;26.70;19.10;;;;;;5047492;28;20029;-61
2023/07/20 10:25:25;;;;;;;0.70;0.55;;;26.40;19.20;;;;;;5026859;28;20032;-61
2023/07/20 10:27:51;;;;;;;2.83;0.20;;;26.00;19.50;;;;;;5046427;28;20029;-61
2023/07/20 10:30:18;;;;;;;0.70;0.47;;;25.60;19.80;;;;;;5026632;28;20296;-61
2023/07/20 10:32:45;;;;;;;2.05;0.90;;;25.10;20.80;;;;;;5047591;28;20120;-61
2023/07/20 10:35:15;;;;;;;0.75;0.47;;;24.80;21.30;;;;;;5026852;28;20406;-61
2023/07/20 10:37:52;;;;;;;0.43;0.32;;;24.30;22.10;;;;;;5047631;28;20577;-61
2023/07/20 10:40:33;;;;;;;0.30;0.30;;;24.00;24.60;;;;;;5025041;28;20030;-61
2023/07/20 10:43:04;;;;;;;1.48;0.35;;;23.80;25.70;;;;;;5047630;28;20091;-61
2023/07/20 10:45:41;;;;;;;1.58;0.50;;;23.60;25.50;;;;;;5029619;28;20636;-61
2023/07/20 10:48:20;;;;;;;2.35;0.50;;;23.60;25.50;;;;;;5012321;28;20612;-61
2023/07/20 10:51:06;;;;;;;1.27;0.55;;;23.50;26.80;;;;;;5027716;28;20448;-61
2023/07/20 10:53:31;;;;;;;2.75;0.55;;;23.50;26.60;;;;;;5012180;28;20041;-61
2023/07/20 10:56:14;;;;;;;1.55;0.60;;;23.60;26.50;;;;;;5029731;28;20051;-61
2023/07/20 10:58:41;;;;;;;1.77;0.60;;;23.60;27.60;;;;;;5051036;28;20040;-61
2023/07/20 11:01:06;;;;;;;0.68;0.38;;;23.80;26.50;;;;;;5012005;28;20033;-61
2023/07/20 11:03:34;;;;;;;0.80;0.63;;;23.90;26.70;;;;;;5050615;28;20095;-61
2023/07/20 11:06:25;;;;;;;0.32;0.30;;;24.00;26.40;;;;;;5023519;28;20043;-61
2023/07/20 11:09:05;;;;;;;0.60;0.50;;;24.30;26.30;;;;;;5011476;28;20475;-61
2023/07/20 11:11:33;;;;;;;0.70;0.68;;;24.70;26.00;;;;;;5031741;28;20033;-61
2023/07/20 11:14:10;;;;;;;0.68;0.60;;;24.80;25.40;;;;;;5046569;28;20029;-61
2023/07/20 11:16:45;;;;;;;0.52;0.40;;;25.00;25.40;;;;;;5031500;28;20013;-63
2023/07/20 11:19:23;;;;;;;0.47;0.40;;;25.20;25.00;;;;;;5014179;28;20108;-62
2023/07/20 11:21:58;;;;;;;2.67;0.50;;;25.10;24.90;;;;;;5031589;28;20040;-62
2023/07/20 11:24:24;;;;;;;4.38;0.85;;;25.20;23.90;;;;;;5042767;28;20497;-62
2023/07/20 11:26:54;;;;;;;0.63;0.40;;;25.10;24.30;;;;;;5031452;28;20033;-62
2023/07/20 11:29:22;;;;;;;1.33;0.50;;;25.20;24.20;;;;;;5043424;28;20398;-62
2023/07/20 11:31:48;;;;;;;1.17;0.65;;;25.30;24.10;;;;;;5031483;28;20029;-62
2023/07/20 11:34:15;;;;;;;0.82;0.60;;;25.30;23.50;;;;;;5043960;28;20284;-61
2023/07/20 11:36:42;;;;;;;0.82;0.52;;;25.30;23.60;;;;;;5031129;28;20022;-62
2023/07/20 11:39:11;;;;;;;0.73;0.50;;;25.40;23.60;;;;;;5044948;28;20092;-62
2023/07/20 11:41:38;;;;;;;0.43;0.43;;;25.50;23.50;;;;;;5031142;28;20037;-62
2023/07/20 11:44:06;;;;;;;0.55;0.50;;;25.50;23.30;;;;;;5045337;28;20026;-62
2023/07/20 11:46:32;;;;;;;1.23;0.52;;;25.60;23.30;;;;;;5030935;28;20033;-62
2023/07/20 11:48:59;;;;;;;0.80;0.43;;;25.50;23.30;;;;;;5045701;28;20033;-62
2023/07/20 11:51:26;;;;;;;1.75;0.40;;;25.30;23.30;;;;;;5030953;28;20028;-62
2023/07/20 11:53:52;;;;;;;0.43;0.32;;;25.20;23.30;;;;;;5046706;28;20033;-62
2023/07/20 11:56:17;;;;;;;0.50;0.40;;;25.00;23.20;;;;;;5030560;28;20124;-62
2023/07/20 11:58:46;;;;;;;0.40;0.40;;;24.90;23.40;;;;;;5047771;28;20039;-62
2023/07/20 12:01:15;;;;;;;0.68;0.57;;;24.90;23.70;;;;;;5031053;28;20043;-62
2023/07/20 12:03:42;;;;;;;0.30;0.30;;;24.80;23.60;;;;;;5048381;28;20021;-61
2023/07/20 12:06:11;;;;;;;0.68;0.50;;;24.80;23.50;;;;;;5024343;28;20033;-62
2023/07/20 12:08:44;;;;;;;1.02;0.50;;;24.80;23.30;;;;;;5050205;28;20037;-62
2023/07/20 12:11:10;;;;;;;3.03;0.60;;;24.80;23.30;;;;;;5011050;28;20025;-62
2023/07/20 12:13:45;;;;;;;0.40;0.40;;;24.90;23.40;;;;;;5049131;28;20029;-62
2023/07/20 12:16:17;;;;;;;0.40;0.40;;;25.10;23.70;;;;;;5010833;28;20022;-62
2023/07/20 12:18:43;;;;;;;1.17;0.47;;;25.20;23.40;;;;;;5047915;28;20025;-61
2023/07/20 12:21:10;;;;;;;0.73;0.68;;;25.20;23.50;;;;;;5030422;28;20034;-62
2023/07/20 12:23:40;;;;;;;0.65;0.38;;;25.30;23.70;;;;;;5049504;28;20681;-62
2023/07/20 12:26:08;;;;;;;0.40;0.40;;;25.30;23.40;;;;;;5010789;28;20041;-62
2023/07/20 12:28:40;;;;;;;0.50;0.50;;;25.20;23.30;;;;;;5049588;28;20044;-62
2023/07/20 12:31:06;;;;;;;0.75;0.50;;;25.20;23.20;;;;;;5010401;28;20563;-62
2023/07/20 12:33:32;;;;;;;0.50;0.50;;;25.20;23.40;;;;;;5048960;28;20120;-62
2023/07/20 12:35:59;;;;;;;0.30;0.30;;;25.10;23.40;;;;;;5028738;28;20087;-62
2023/07/20 12:38:25;;;;;;;1.25;0.70;;;25.00;23.40;;;;;;5049488;28;20114;-62
2023/07/20 12:40:50;;;;;;;0.43;0.40;;;24.70;23.60;;;;;;5028590;28;20063;-62
2023/07/20 12:43:16;;;;;;;0.20;0.20;;;24.40;24.00;;;;;;5048878;28;20112;-62
2023/07/20 12:45:43;;;;;;;0.40;0.40;;;24.20;24.60;;;;;;5028662;28;20507;-62